Time;durP1;ratioP1;P1;durP2;ratioP2;P2;SDS_P1;SDS_P2;PMS_P1;PMS_P2;Temp;Humidity;BMP_temperature;BMP_pressure;BME280_temperature;BME280_humidity;BME280_pressure;Samples;Min_cycle;Max_cycle;Signal;HPM_P1;HPM_P2
2023/07/28 00:02:19;;;;;;;;;;;;;;;;;;5115607;28;19949;-64
2023/07/28 00:04:45;;;;;;;;;;;;;;;;;;5115612;28;19994;-66
2023/07/28 00:07:11;;;;;;;;;;;;;;;;;;5113603;28;19911;-65
2023/07/28 00:09:37;;;;;;;;;;;;;;;;;;5099204;28;19919;-65
2023/07/28 00:12:03;;;;;;;;;;;;;;;;;;5094699;28;20279;-65
2023/07/28 00:14:29;;;;;;;;;;;;;;;;;;5103358;28;19927;-65
2023/07/28 00:16:55;;;;;;;;;;;;;;;;;;5114568;28;19957;-65
2023/07/28 00:19:21;;;;;;;;;;;;;;;;;;5107625;28;20278;-65
2023/07/28 00:21:47;;;;;;;;;;;;;;;;;;5108360;28;19957;-65
2023/07/28 00:24:12;;;;;;;;;;;;;;;;;;5097722;28;20360;-65
2023/07/28 00:26:38;;;;;;;;;;;;;;;;;;5099371;28;20268;-64
2023/07/28 00:29:06;;;;;;;;;;;;;;;;;;5103895;28;19962;-64
2023/07/28 00:31:32;;;;;;;;;;;;;;;;;;5095233;28;19918;-64
2023/07/28 00:33:58;;;;;;;;;;;;;;;;;;5097275;28;19912;-64
2023/07/28 00:36:24;;;;;;;;;;;;;;;;;;5106199;28;19938;-64
2023/07/28 00:38:49;;;;;;;;;;;;;;;;;;5094685;28;19966;-64
2023/07/28 00:41:15;;;;;;;;;;;;;;;;;;5104086;28;20010;-64
2023/07/28 00:43:41;;;;;;;;;;;;;;;;;;5094664;28;19914;-64
2023/07/28 00:46:07;;;;;;;;;;;;;;;;;;5094443;28;20001;-64
2023/07/28 00:48:33;;;;;;;;;;;;;;;;;;5101841;28;19939;-64
2023/07/28 00:50:59;;;;;;;;;;;;;;;;;;5113593;28;19912;-64
2023/07/28 00:53:25;;;;;;;;;;;;;;;;;;5113786;28;19919;-64
2023/07/28 00:55:51;;;;;;;;;;;;;;;;;;5111882;28;19970;-64
2023/07/28 00:58:17;;;;;;;;;;;;;;;;;;5110609;28;19998;-63
2023/07/28 01:03:18;;;;;;;;;;;;;;;;;;1199370;22;19964;-63
2023/07/28 01:05:44;;;;;;;;;;;;;;;;;;5026447;22;19968;-64
2023/07/28 01:08:10;;;;;;;;;;;;;;;;;;5009814;28;19917;-62
2023/07/28 01:10:36;;;;;;;;;;;;;;;;;;5009573;28;20012;-63
2023/07/28 01:13:02;;;;;;;;;;;;;;;;;;5009622;28;19917;-62
2023/07/28 01:15:28;;;;;;;;;;;;;;;;;;5012231;28;19917;-63
2023/07/28 01:17:54;;;;;;;;;;;;;;;;;;5013506;28;19975;-62
2023/07/28 01:20:20;;;;;;;;;;;;;;;;;;5012295;28;20384;-62
2023/07/28 01:22:46;;;;;;;;;;;;;;;;;;5010212;28;20411;-62
2023/07/28 01:25:11;;;;;;;;;;;;;;;;;;5012509;28;19917;-61
2023/07/28 01:27:37;;;;;;;;;;;;;;;;;;5012153;28;20322;-62
2023/07/28 01:30:03;;;;;;;;;;;;;;;;;;5009886;28;19957;-62
2023/07/28 01:32:29;;;;;;;;;;;;;;;;;;5012388;28;19913;-62
2023/07/28 01:34:55;;;;;;;;;;;;;;;;;;5013266;28;20541;-62
2023/07/28 01:37:21;;;;;;;;;;;;;;;;;;5013042;28;19914;-62
2023/07/28 01:39:47;;;;;;;;;;;;;;;;;;5012175;28;19960;-62
2023/07/28 01:42:13;;;;;;;;;;;;;;;;;;5011975;28;19909;-62
2023/07/28 01:44:39;;;;;;;;;;;;;;;;;;5011340;28;19928;-63
2023/07/28 01:47:04;;;;;;;;;;;;;;;;;;5012485;28;19924;-62
2023/07/28 01:49:30;;;;;;;;;;;;;;;;;;5011840;28;20608;-63
2023/07/28 01:51:56;;;;;;;;;;;;;;;;;;5011919;28;19918;-63
2023/07/28 01:54:22;;;;;;;;;;;;;;;;;;5010819;28;19972;-63
2023/07/28 01:56:48;;;;;;;;;;;;;;;;;;5013478;28;20432;-62
2023/07/28 01:59:14;;;;;;;;;;;;;;;;;;5012525;28;20007;-62
2023/07/28 02:01:40;;;;;;;;;;;;;;;;;;5012303;28;19917;-62
2023/07/28 02:04:06;;;;;;;;;;;;;;;;;;5011609;28;20364;-62
2023/07/28 02:06:32;;;;;;;;;;;;;;;;;;5012330;28;20406;-63
2023/07/28 02:08:58;;;;;;;;;;;;;;;;;;5012724;28;20313;-62
2023/07/28 02:11:24;;;;;;;;;;;;;;;;;;5012872;28;19920;-62
2023/07/28 02:13:50;;;;;;;;;;;;;;;;;;5012420;28;19917;-61
2023/07/28 02:16:16;;;;;;;;;;;;;;;;;;5013018;28;19952;-61
2023/07/28 02:18:42;;;;;;;;;;;;;;;;;;5012679;28;19961;-61
2023/07/28 02:21:08;;;;;;;;;;;;;;;;;;5011861;28;20004;-61
2023/07/28 02:23:33;;;;;;;;;;;;;;;;;;5011493;28;19996;-62
2023/07/28 02:25:59;;;;;;;;;;;;;;;;;;5013026;28;20320;-61
2023/07/28 02:28:25;;;;;;;;;;;;;;;;;;5012899;28;19963;-61
2023/07/28 02:30:51;;;;;;;;;;;;;;;;;;5012035;28;19917;-60
2023/07/28 02:33:17;;;;;;;;;;;;;;;;;;5010319;28;19960;-61
2023/07/28 02:35:43;;;;;;;;;;;;;;;;;;5011325;28;19956;-61
2023/07/28 02:38:09;;;;;;;;;;;;;;;;;;5010339;28;19921;-60
2023/07/28 02:40:35;;;;;;;;;;;;;;;;;;5010673;28;19994;-60
2023/07/28 02:43:01;;;;;;;;;;;;;;;;;;5012638;28;20416;-61
2023/07/28 02:45:27;;;;;;;;;;;;;;;;;;5011530;28;20008;-60
2023/07/28 02:47:52;;;;;;;;;;;;;;;;;;5012684;28;19924;-60
2023/07/28 02:50:18;;;;;;;;;;;;;;;;;;5010237;28;20367;-62
2023/07/28 02:52:44;;;;;;;;;;;;;;;;;;5012850;28;20023;-61
2023/07/28 02:55:10;;;;;;;;;;;;;;;;;;5011019;28;20395;-63
2023/07/28 02:57:36;;;;;;;;;;;;;;;;;;5012243;28;19972;-60
2023/07/28 03:00:05;;;;;;;;;;;;;;;;;;5010837;28;19929;-61
2023/07/28 03:02:31;;;;;;;;;;;;;;;;;;5011058;28;19963;-60
2023/07/28 03:04:57;;;;;;;;;;;;;;;;;;5010807;28;20613;-61
2023/07/28 03:07:23;;;;;;;;;;;;;;;;;;5011271;28;19920;-60
2023/07/28 03:09:49;;;;;;;;;;;;;;;;;;5010657;28;19952;-60
2023/07/28 03:12:14;;;;;;;;;;;;;;;;;;5010012;28;20004;-60
2023/07/28 03:14:40;;;;;;;;;;;;;;;;;;5011499;28;19964;-61
2023/07/28 03:17:06;;;;;;;;;;;;;;;;;;5012322;28;19910;-61
2023/07/28 03:19:32;;;;;;;;;;;;;;;;;;5010533;28;19921;-62
2023/07/28 03:21:58;;;;;;;;;;;;;;;;;;5010991;28;20356;-61
2023/07/28 03:24:24;;;;;;;;;;;;;;;;;;5011596;28;20016;-64
2023/07/28 03:26:50;;;;;;;;;;;;;;;;;;5011534;28;19922;-64
2023/07/28 03:29:16;;;;;;;;;;;;;;;;;;5010785;28;20059;-64
2023/07/28 03:31:42;;;;;;;;;;;;;;;;;;5011767;28;20067;-63
2023/07/28 03:34:08;;;;;;;;;;;;;;;;;;5011593;28;19913;-63
2023/07/28 03:36:34;;;;;;;;;;;;;;;;;;5011593;28;20028;-64
2023/07/28 03:38:59;;;;;;;;;;;;;;;;;;5011280;28;19914;-65
2023/07/28 03:41:25;;;;;;;;;;;;;;;;;;5009885;28;20280;-64
2023/07/28 03:43:51;;;;;;;;;;;;;;;;;;5010427;28;19914;-64
2023/07/28 03:46:17;;;;;;;;;;;;;;;;;;5007981;28;19921;-64
2023/07/28 03:48:43;;;;;;;;;;;;;;;;;;5010718;28;20365;-64
2023/07/28 03:51:09;;;;;;;;;;;;;;;;;;5013480;28;20404;-64
2023/07/28 03:53:35;;;;;;;;;;;;;;;;;;5013402;28;19914;-64
2023/07/28 03:56:01;;;;;;;;;;;;;;;;;;5013647;28;20271;-65
2023/07/28 03:58:27;;;;;;;;;;;;;;;;;;5013463;28;20361;-65
2023/07/28 04:00:53;;;;;;;;;;;;;;;;;;5012186;28;19924;-64
2023/07/28 04:03:19;;;;;;;;;;;;;;;;;;5006157;28;20008;-65
2023/07/28 04:05:45;;;;;;;;;;;;;;;;;;5012699;28;20021;-64
2023/07/28 04:08:11;;;;;;;;;;;;;;;;;;5014158;28;19953;-64
2023/07/28 04:10:36;;;;;;;;;;;;;;;;;;5013432;28;20280;-64
2023/07/28 04:13:02;;;;;;;;;;;;;;;;;;5014227;28;19920;-64
2023/07/28 04:15:28;;;;;;;;;;;;;;;;;;5014323;28;19921;-64
2023/07/28 04:17:54;;;;;;;;;;;;;;;;;;5013879;28;19956;-65
2023/07/28 04:20:20;;;;;;;;;;;;;;;;;;5011610;28;19920;-65
2023/07/28 04:22:46;;;;;;;;;;;;;;;;;;5006540;28;20369;-65
2023/07/28 04:25:12;;;;;;;;;;;;;;;;;;5021181;28;19960;-64
2023/07/28 04:27:38;;;;;;;;;;;;;;;;;;5013902;28;19909;-64
2023/07/28 04:30:04;;;;;;;;;;;;;;;;;;5011037;28;19987;-64
2023/07/28 04:32:29;;;;;;;;;;;;;;;;;;5012173;28;20397;-64
2023/07/28 04:34:55;;;;;;;;;;;;;;;;;;5011622;28;20004;-64
2023/07/28 04:37:21;;;;;;;;;;;;;;;;;;5011997;28;19931;-64
2023/07/28 04:39:47;;;;;;;;;;;;;;;;;;5012587;28;20032;-64
2023/07/28 04:42:13;;;;;;;;;;;;;;;;;;5013306;28;19914;-64
2023/07/28 04:44:40;;;;;;;;;;;;;;;;;;5011448;28;20000;-60
2023/07/28 04:47:06;;;;;;;;;;;;;;;;;;5013638;28;19909;-61
2023/07/28 04:49:32;;;;;;;;;;;;;;;;;;5012144;28;19936;-62
2023/07/28 04:51:57;;;;;;;;;;;;;;;;;;5012909;28;19973;-60
2023/07/28 04:54:23;;;;;;;;;;;;;;;;;;5013621;28;19994;-64
2023/07/28 04:56:52;;;;;;;;;;;;;;;;;;5012504;28;20011;-64
2023/07/28 04:59:18;;;;;;;;;;;;;;;;;;5013039;28;19921;-64
2023/07/28 05:01:44;;;;;;;;;;;;;;;;;;4985917;28;19913;-64
2023/07/28 05:04:10;;;;;;;;;;;;;;;;;;5011617;28;19913;-63
2023/07/28 05:06:36;;;;;;;;;;;;;;;;;;5011464;28;19963;-63
2023/07/28 05:09:02;;;;;;;;;;;;;;;;;;5012470;28;19926;-63
2023/07/28 05:11:28;;;;;;;;;;;;;;;;;;5010206;28;19924;-63
2023/07/28 05:13:54;;;;;;;;;;;;;;;;;;5010299;28;20483;-63
2023/07/28 05:16:20;;;;;;;;;;;;;;;;;;5012396;28;20000;-64
2023/07/28 05:18:46;;;;;;;;;;;;;;;;;;5009814;28;19928;-63
2023/07/28 05:21:12;;;;;;;;;;;;;;;;;;5012342;28;19964;-63
2023/07/28 05:23:37;;;;;;;;;;;;;;;;;;5010431;28;19920;-63
2023/07/28 05:26:03;;;;;;;;;;;;;;;;;;5011641;28;19914;-63
2023/07/28 05:28:29;;;;;;;;;;;;;;;;;;5015245;28;19968;-63
2023/07/28 05:30:55;;;;;;;;;;;;;;;;;;5011253;28;20434;-63
2023/07/28 05:33:21;;;;;;;;;;;;;;;;;;5024138;28;19919;-63
2023/07/28 05:35:47;;;;;;;;;;;;;;;;;;5015823;28;19914;-63
2023/07/28 05:38:13;;;;;;;;;;;;;;;;;;4989969;28;19917;-64
2023/07/28 05:40:39;;;;;;;;;;;;;;;;;;5016816;28;19945;-63
2023/07/28 05:43:05;;;;;;;;;;;;;;;;;;5010840;28;20261;-64
2023/07/28 05:45:31;;;;;;;;;;;;;;;;;;5015540;28;19957;-63
2023/07/28 05:47:56;;;;;;;;;;;;;;;;;;5011290;28;19939;-64
2023/07/28 05:50:22;;;;;;;;;;;;;;;;;;5010249;28;19913;-63
2023/07/28 05:52:48;;;;;;;;;;;;;;;;;;5017467;28;20415;-64
2023/07/28 05:55:14;;;;;;;;;;;;;;;;;;5011060;28;19920;-64
2023/07/28 05:57:40;;;;;;;;;;;;;;;;;;5012189;28;20302;-64
2023/07/28 06:00:09;;;;;;;;;;;;;;;;;;5006957;28;19917;-64
2023/07/28 06:02:35;;;;;;;;;;;;;;;;;;5013071;28;20494;-62
2023/07/28 06:05:01;;;;;;;;;;;;;;;;;;5006386;28;19922;-64
2023/07/28 06:07:27;;;;;;;;;;;;;;;;;;5010922;28;19917;-64
2023/07/28 06:09:53;;;;;;;;;;;;;;;;;;5006087;28;20377;-64
2023/07/28 06:12:19;;;;;;;;;;;;;;;;;;5006745;28;19921;-64
2023/07/28 06:14:45;;;;;;;;;;;;;;;;;;5008891;28;19960;-63
2023/07/28 06:17:11;;;;;;;;;;;;;;;;;;5012542;28;19918;-63
2023/07/28 06:19:37;;;;;;;;;;;;;;;;;;4996838;28;19959;-64
2023/07/28 06:22:03;;;;;;;;;;;;;;;;;;5004798;28;19952;-63
2023/07/28 06:24:29;;;;;;;;;;;;;;;;;;5011469;28;20012;-63
2023/07/28 06:26:54;;;;;;;;;;;;;;;;;;5010041;28;19920;-63
2023/07/28 06:29:20;;;;;;;;;;;;;;;;;;5011894;28;19917;-63
2023/07/28 06:31:46;;;;;;;;;;;;;;;;;;5011526;28;20392;-61
2023/07/28 06:34:12;;;;;;;;;;;;;;;;;;5008770;28;20009;-61
2023/07/28 06:36:38;;;;;;;;;;;;;;;;;;5011604;28;19996;-62
2023/07/28 06:39:04;;;;;;;;;;;;;;;;;;5012000;28;19945;-61
2023/07/28 06:41:30;;;;;;;;;;;;;;;;;;5009979;28;20360;-62
2023/07/28 06:43:56;;;;;;;;;;;;;;;;;;5008047;28;20093;-61
2023/07/28 06:46:22;;;;;;;;;;;;;;;;;;5001148;28;19964;-63
2023/07/28 06:48:48;;;;;;;;;;;;;;;;;;5001840;28;19963;-63
2023/07/28 06:51:14;;;;;;;;;;;;;;;;;;5003481;28;19953;-63
2023/07/28 06:53:40;;;;;;;;;;;;;;;;;;4997702;28;19917;-63
2023/07/28 06:56:06;;;;;;;;;;;;;;;;;;5002476;28;19959;-63
2023/07/28 06:58:31;;;;;;;;;;;;;;;;;;5000647;28;20403;-63
2023/07/28 07:00:58;;;;;;;;;;;;;;;;;;5001472;28;19963;-60
2023/07/28 07:03:24;;;;;;;;;;;;;;;;;;5005429;28;19921;-62
2023/07/28 07:05:49;;;;;;;;;;;;;;;;;;5001851;28;19956;-62
2023/07/28 07:08:15;;;;;;;;;;;;;;;;;;4999982;28;19914;-62
2023/07/28 07:10:41;;;;;;;;;;;;;;;;;;5000648;28;19997;-62
2023/07/28 07:13:07;;;;;;;;;;;;;;;;;;5002968;28;19947;-60
2023/07/28 07:15:33;;;;;;;;;;;;;;;;;;5001615;28;19914;-60
2023/07/28 07:17:59;;;;;;;;;;;;;;;;;;4998843;28;20344;-60
2023/07/28 07:20:25;;;;;;;;;;;;;;;;;;4998336;28;19914;-59
2023/07/28 07:22:51;;;;;;;;;;;;;;;;;;5003486;28;19983;-61
2023/07/28 07:25:17;;;;;;;;;;;;;;;;;;5007263;28;19913;-61
2023/07/28 07:27:43;;;;;;;;;;;;;;;;;;5006059;28;20359;-62
2023/07/28 07:30:09;;;;;;;;;;;;;;;;;;5001122;28;19918;-61
2023/07/28 07:32:35;;;;;;;;;;;;;;;;;;5008039;28;19970;-61
2023/07/28 07:35:01;;;;;;;;;;;;;;;;;;5005331;28;19960;-62
2023/07/28 07:37:27;;;;;;;;;;;;;;;;;;5001254;28;19914;-61
2023/07/28 07:39:54;;;;;;;;;;;;;;;;;;5007145;28;19921;-62
2023/07/28 07:42:20;;;;;;;;;;;;;;;;;;5007608;28;19922;-62
2023/07/28 07:44:46;;;;;;;;;;;;;;;;;;5008450;28;19945;-60
2023/07/28 07:47:13;;;;;;;;;;;;;;;;;;5005133;28;19914;-61
2023/07/28 07:49:39;;;;;;;;;;;;;;;;;;5006793;28;19920;-60
2023/07/28 07:52:05;;;;;;;;;;;;;;;;;;5006592;28;19917;-61
2023/07/28 07:54:30;;;;;;;;;;;;;;;;;;5003847;28;20272;-61
2023/07/28 07:56:56;;;;;;;;;;;;;;;;;;5004740;28;19914;-61
2023/07/28 07:59:26;;;;;;;;;;;;;;;;;;5010408;28;19925;-62
2023/07/28 08:01:51;;;;;;;;;;;;;;;;;;5009364;28;19913;-60
2023/07/28 08:04:17;;;;;;;;;;;;;;;;;;5014007;28;19914;-61
2023/07/28 08:06:43;;;;;;;;;;;;;;;;;;5012651;28;20333;-61
2023/07/28 08:09:09;;;;;;;;;;;;;;;;;;5010420;28;20341;-61
2023/07/28 08:11:35;;;;;;;;;;;;;;;;;;5013961;28;19916;-60
2023/07/28 08:14:01;;;;;;;;;;;;;;;;;;5009882;28;19952;-61
2023/07/28 08:16:27;;;;;;;;;;;;;;;;;;5012616;28;19918;-61
2023/07/28 08:18:53;;;;;;;;;;;;;;;;;;5006406;28;19987;-60
2023/07/28 08:21:19;;;;;;;;;;;;;;;;;;5007072;28;19914;-60
2023/07/28 08:23:45;;;;;;;;;;;;;;;;;;5007575;28;19917;-60
2023/07/28 08:26:11;;;;;;;;;;;;;;;;;;5003420;28;19993;-61
2023/07/28 08:28:37;;;;;;;;;;;;;;;;;;5006517;28;20039;-59
2023/07/28 08:31:04;;;;;;;;;;;;;;;;;;5007362;28;20013;-60
2023/07/28 08:33:30;;;;;;;;;;;;;;;;;;5006815;28;19953;-63
2023/07/28 08:35:55;;;;;;;;;;;;;;;;;;5001249;28;20627;-62
2023/07/28 08:38:21;;;;;;;;;;;;;;;;;;5005279;28;19921;-62
2023/07/28 08:40:47;;;;;;;;;;;;;;;;;;5006989;28;20423;-62
2023/07/28 08:43:13;;;;;;;;;;;;;;;;;;5004342;28;19975;-62
2023/07/28 08:45:39;;;;;;;;;;;;;;;;;;5006966;28;20379;-62
2023/07/28 08:48:05;;;;;;;;;;;;;;;;;;5006065;28;19917;-62
2023/07/28 08:50:31;;;;;;;;;;;;;;;;;;5004567;28;19988;-62
2023/07/28 08:52:57;;;;;;;;;;;;;;;;;;5007255;28;19952;-62
2023/07/28 08:55:23;;;;;;;;;;;;;;;;;;5005820;28;19935;-62
2023/07/28 08:57:49;;;;;;;;;;;;;;;;;;5002871;28;19961;-63
2023/07/28 09:00:15;;;;;;;;;;;;;;;;;;5002306;28;20000;-63
2023/07/28 09:02:41;;;;;;;;;;;;;;;;;;5002666;28;19972;-63
2023/07/28 09:05:06;;;;;;;;;;;;;;;;;;5002864;28;19983;-62
2023/07/28 09:07:32;;;;;;;;;;;;;;;;;;5002645;28;20441;-63
2023/07/28 09:09:58;;;;;;;;;;;;;;;;;;5007636;28;20408;-63
2023/07/28 09:12:24;;;;;;;;;;;;;;;;;;5003958;28;19997;-63
2023/07/28 09:14:50;;;;;;;;;;;;;;;;;;5002377;28;19917;-63
2023/07/28 09:17:17;;;;;;;;;;;;;;;;;;5006403;28;19920;-62
2023/07/28 09:19:43;;;;;;;;;;;;;;;;;;5007734;28;19921;-62
2023/07/28 09:22:09;;;;;;;;;;;;;;;;;;4999835;28;19993;-63
2023/07/28 09:24:36;;;;;;;;;;;;;;;;;;5013294;28;20003;-63
2023/07/28 09:27:02;;;;;;;;;;;;;;;;;;5010865;28;19919;-62
2023/07/28 09:29:28;;;;;;;;;;;;;;;;;;5000037;28;20340;-63
2023/07/28 09:31:54;;;;;;;;;;;;;;;;;;5004898;28;20661;-63
2023/07/28 09:34:20;;;;;;;;;;;;;;;;;;5010167;28;19913;-62
2023/07/28 09:36:45;;;;;;;;;;;;;;;;;;5013108;28;20036;-62
2023/07/28 09:39:12;;;;;;;;;;;;;;;;;;5008727;28;20387;-62
2023/07/28 09:41:38;;;;;;;;;;;;;;;;;;5010359;28;19920;-62
2023/07/28 09:44:04;;;;;;;;;;;;;;;;;;5010745;28;19913;-63
2023/07/28 09:46:30;;;;;;;;;;;;;;;;;;5009785;28;19913;-63
2023/07/28 09:48:56;;;;;;;;;;;;;;;;;;5009159;28;20000;-63
2023/07/28 09:51:22;;;;;;;;;;;;;;;;;;5006927;28;19918;-64
2023/07/28 09:53:48;;;;;;;;;;;;;;;;;;5015456;28;19917;-62
2023/07/28 09:56:15;;;;;;;;;;;;;;;;;;5006649;28;19914;-64
2023/07/28 09:58:41;;;;;;;;;;;;;;;;;;5010045;28;19921;-63
2023/07/28 10:01:07;;;;;;;;;;;;;;;;;;5007163;28;19913;-63
2023/07/28 10:03:33;;;;;;;;;;;;;;;;;;5006138;28;20057;-63
2023/07/28 10:05:59;;;;;;;;;;;;;;;;;;5005719;28;19971;-62
2023/07/28 10:08:25;;;;;;;;;;;;;;;;;;5003833;28;20377;-63
2023/07/28 10:10:52;;;;;;;;;;;;;;;;;;5009167;28;19925;-63
2023/07/28 10:13:18;;;;;;;;;;;;;;;;;;5006522;28;19920;-64
2023/07/28 10:15:44;;;;;;;;;;;;;;;;;;5009771;28;20273;-64
2023/07/28 10:18:10;;;;;;;;;;;;;;;;;;5009736;28;19968;-63
2023/07/28 10:20:36;;;;;;;;;;;;;;;;;;5009111;28;20063;-63
2023/07/28 10:23:02;;;;;;;;;;;;;;;;;;5008862;28;19913;-63
2023/07/28 10:25:28;;;;;;;;;;;;;;;;;;5011024;28;20304;-63
2023/07/28 10:27:54;;;;;;;;;;;;;;;;;;5009383;28;20039;-63
2023/07/28 10:30:20;;;;;;;;;;;;;;;;;;5007318;28;19917;-62
2023/07/28 10:32:46;;;;;;;;;;;;;;;;;;5012341;28;19914;-63
2023/07/28 10:35:12;;;;;;;;;;;;;;;;;;5009568;28;19913;-62
2023/07/28 10:37:38;;;;;;;;;;;;;;;;;;5007651;28;19947;-62
2023/07/28 10:40:04;;;;;;;;;;;;;;;;;;5010267;28;19917;-63
2023/07/28 10:42:30;;;;;;;;;;;;;;;;;;5008891;28;20337;-62
2023/07/28 10:44:56;;;;;;;;;;;;;;;;;;5011152;28;19947;-62
2023/07/28 10:47:22;;;;;;;;;;;;;;;;;;5009127;28;19923;-62
2023/07/28 10:49:48;;;;;;;;;;;;;;;;;;5010225;28;20357;-63
2023/07/28 10:52:14;;;;;;;;;;;;;;;;;;5005797;28;20407;-61
2023/07/28 10:54:40;;;;;;;;;;;;;;;;;;5004020;28;19921;-62
2023/07/28 10:57:06;;;;;;;;;;;;;;;;;;5002356;28;19956;-60
2023/07/28 10:59:32;;;;;;;;;;;;;;;;;;5013886;28;20394;-62
2023/07/28 11:01:58;;;;;;;;;;;;;;;;;;5003634;28;19975;-61
2023/07/28 11:04:24;;;;;;;;;;;;;;;;;;5005707;28;19960;-61
2023/07/28 11:06:50;;;;;;;;;;;;;;;;;;5006102;28;20364;-59
2023/07/28 11:09:16;;;;;;;;;;;;;;;;;;5010604;28;19980;-62
2023/07/28 11:11:42;;;;;;;;;;;;;;;;;;5009961;28;19945;-62
2023/07/28 11:14:08;;;;;;;;;;;;;;;;;;5009944;28;19918;-62
2023/07/28 11:16:34;;;;;;;;;;;;;;;;;;5007869;28;19918;-62
2023/07/28 11:19:00;;;;;;;;;;;;;;;;;;5012265;28;20337;-61
2023/07/28 11:21:26;;;;;;;;;;;;;;;;;;5008213;28;20514;-62
2023/07/28 11:23:53;;;;;;;;;;;;;;;;;;5008347;28;19914;-63
2023/07/28 11:26:19;;;;;;;;;;;;;;;;;;5011117;28;19914;-62
2023/07/28 11:28:45;;;;;;;;;;;;;;;;;;5011319;28;19945;-59
2023/07/28 11:31:11;;;;;;;;;;;;;;;;;;5006628;28;19963;-62
2023/07/28 11:33:37;;;;;;;;;;;;;;;;;;5008629;28;19960;-62
2023/07/28 11:36:03;;;;;;;;;;;;;;;;;;5007118;28;20703;-62
2023/07/28 11:38:29;;;;;;;;;;;;;;;;;;5013575;28;19922;-62
2023/07/28 11:40:55;;;;;;;;;;;;;;;;;;5012778;28;20020;-62
2023/07/28 11:43:21;;;;;;;;;;;;;;;;;;5006176;28;20325;-62
2023/07/28 11:45:47;;;;;;;;;;;;;;;;;;5010675;28;19993;-62
2023/07/28 11:48:13;;;;;;;;;;;;;;;;;;5011293;28;20376;-62
2023/07/28 11:50:39;;;;;;;;;;;;;;;;;;5011498;28;20392;-62
2023/07/28 11:53:06;;;;;;;;;;;;;;;;;;5010525;28;19964;-61
2023/07/28 11:55:32;;;;;;;;;;;;;;;;;;5012120;28;19921;-61
2023/07/28 11:57:58;;;;;;;;;;;;;;;;;;5012450;28;20449;-61
2023/07/28 12:00:27;;;;;;;;;;;;;;;;;;5008956;28;19913;-61
2023/07/28 12:02:52;;;;;;;;;;;;;;;;;;5004568;28;19967;-61
2023/07/28 12:05:18;;;;;;;;;;;;;;;;;;5012348;28;19956;-61
2023/07/28 12:07:44;;;;;;;;;;;;;;;;;;5011005;28;19923;-62
2023/07/28 12:10:10;;;;;;;;;;;;;;;;;;5008374;28;19932;-61
2023/07/28 12:12:36;;;;;;;;;;;;;;;;;;5010725;28;19913;-60
2023/07/28 12:15:04;;;;;;;;;;;;;;;;;;5008915;28;20009;-61
2023/07/28 12:17:30;;;;;;;;;;;;;;;;;;5010621;28;20813;-60
2023/07/28 12:19:56;;;;;;;;;;;;;;;;;;5006072;28;19957;-62
2023/07/28 12:22:22;;;;;;;;;;;;;;;;;;5009025;28;19968;-61
2023/07/28 12:24:48;;;;;;;;;;;;;;;;;;5011938;28;19917;-60
2023/07/28 12:27:15;;;;;;;;;;;;;;;;;;5010211;28;20359;-61
2023/07/28 12:29:41;;;;;;;;;;;;;;;;;;5013572;28;19922;-61
2023/07/28 12:32:07;;;;;;;;;;;;;;;;;;5010531;28;19952;-61
2023/07/28 12:34:33;;;;;;;;;;;;;;;;;;4993638;28;19960;-62
2023/07/28 12:36:59;;;;;;;;;;;;;;;;;;5010180;28;19971;-61
2023/07/28 12:39:25;;;;;;;;;;;;;;;;;;5008791;28;20408;-61
2023/07/28 12:41:51;;;;;;;;;;;;;;;;;;5013434;28;20012;-61
2023/07/28 12:44:17;;;;;;;;;;;;;;;;;;5013709;28;19910;-61
2023/07/28 12:46:43;;;;;;;;;;;;;;;;;;5013419;28;19913;-61
2023/07/28 12:49:09;;;;;;;;;;;;;;;;;;5009310;28;20305;-61
2023/07/28 12:51:35;;;;;;;;;;;;;;;;;;5006528;28;19960;-62
2023/07/28 12:54:01;;;;;;;;;;;;;;;;;;5013677;28;19988;-61
2023/07/28 12:56:26;;;;;;;;;;;;;;;;;;5009715;28;20387;-61
2023/07/28 12:58:52;;;;;;;;;;;;;;;;;;5003027;28;19918;-62
2023/07/28 13:01:18;;;;;;;;;;;;;;;;;;5003260;28;20326;-62
2023/07/28 13:03:44;;;;;;;;;;;;;;;;;;5003520;28;20408;-63
2023/07/28 13:06:10;;;;;;;;;;;;;;;;;;5005298;28;19921;-63
2023/07/28 13:08:36;;;;;;;;;;;;;;;;;;5009467;28;19949;-63
2023/07/28 13:11:02;;;;;;;;;;;;;;;;;;5011954;28;19910;-63
2023/07/28 13:13:30;;;;;;;;;;;;;;;;;;5011717;28;19920;-60
2023/07/28 13:15:55;;;;;;;;;;;;;;;;;;5014677;28;19925;-61
2023/07/28 13:18:21;;;;;;;;;;;;;;;;;;5014686;28;19964;-61
2023/07/28 13:20:47;;;;;;;;;;;;;;;;;;4989838;28;20377;-58
2023/07/28 13:23:13;;;;;;;;;;;;;;;;;;5010588;28;19913;-56
2023/07/28 13:25:39;;;;;;;;;;;;;;;;;;5003963;28;19936;-57
2023/07/28 13:28:05;;;;;;;;;;;;;;;;;;5011462;28;19953;-58
2023/07/28 13:30:31;;;;;;;;;;;;;;;;;;5010752;28;19917;-59
2023/07/28 13:32:57;;;;;;;;;;;;;;;;;;5010339;28;20395;-58
2023/07/28 13:35:24;;;;;;;;;;;;;;;;;;5006555;28;19959;-57
2023/07/28 13:37:50;;;;;;;;;;;;;;;;;;5004825;28;19918;-57
2023/07/28 13:40:16;;;;;;;;;;;;;;;;;;5010270;28;20377;-57
2023/07/28 13:42:42;;;;;;;;;;;;;;;;;;5007241;28;19917;-61
2023/07/28 13:45:08;;;;;;;;;;;;;;;;;;5011275;28;19979;-56
2023/07/28 13:47:34;;;;;;;;;;;;;;;;;;5010388;28;19918;-60
2023/07/28 13:50:00;;;;;;;;;;;;;;;;;;5003326;28;19948;-58
2023/07/28 13:52:26;;;;;;;;;;;;;;;;;;5009438;28;20032;-59
2023/07/28 13:54:51;;;;;;;;;;;;;;;;;;5012133;28;19921;-61
2023/07/28 13:57:17;;;;;;;;;;;;;;;;;;5011469;28;20389;-60
2023/07/28 13:59:43;;;;;;;;;;;;;;;;;;5010810;28;19921;-59
2023/07/28 14:02:09;;;;;;;;;;;;;;;;;;5011403;28;19921;-58
2023/07/28 14:04:35;;;;;;;;;;;;;;;;;;5011423;28;19917;-57
2023/07/28 14:07:01;;;;;;;;;;;;;;;;;;5009331;28;20024;-58
2023/07/28 14:09:27;;;;;;;;;;;;;;;;;;5010873;28;20007;-58
2023/07/28 14:11:53;;;;;;;;;;;;;;;;;;5009452;28;20308;-59
2023/07/28 14:14:19;;;;;;;;;;;;;;;;;;5012206;28;19979;-61
2023/07/28 14:16:45;;;;;;;;;;;;;;;;;;5011023;28;20000;-60
2023/07/28 14:19:11;;;;;;;;;;;;;;;;;;5011682;28;20047;-59
2023/07/28 14:21:37;;;;;;;;;;;;;;;;;;5009504;28;19983;-60
2023/07/28 14:24:03;;;;;;;;;;;;;;;;;;5006927;28;19925;-61
2023/07/28 14:26:30;;;;;;;;;;;;;;;;;;5010272;28;19920;-60
2023/07/28 14:28:56;;;;;;;;;;;;;;;;;;5007889;28;19917;-61
2023/07/28 14:31:21;;;;;;;;;;;;;;;;;;5008112;28;20238;-61
2023/07/28 14:33:47;;;;;;;;;;;;;;;;;;5010825;28;19949;-61
2023/07/28 14:36:13;;;;;;;;;;;;;;;;;;5011118;28;20400;-61
2023/07/28 14:38:39;;;;;;;;;;;;;;;;;;5004776;28;20312;-61
2023/07/28 14:41:05;;;;;;;;;;;;;;;;;;5009207;28;19914;-61
2023/07/28 14:43:31;;;;;;;;;;;;;;;;;;5008545;28;20001;-61
2023/07/28 14:45:57;;;;;;;;;;;;;;;;;;5006826;28;20671;-60
2023/07/28 14:48:23;;;;;;;;;;;;;;;;;;5010426;28;19918;-60
2023/07/28 14:50:49;;;;;;;;;;;;;;;;;;5004929;28;19980;-61
2023/07/28 14:53:15;;;;;;;;;;;;;;;;;;5009498;28;20005;-60
2023/07/28 14:55:40;;;;;;;;;;;;;;;;;;5007679;28;20004;-60
2023/07/28 14:58:06;;;;;;;;;;;;;;;;;;5010329;28;20339;-60
2023/07/28 15:00:32;;;;;;;;;;;;;;;;;;5008660;28;19957;-60
2023/07/28 15:02:58;;;;;;;;;;;;;;;;;;5008160;28;19917;-60
2023/07/28 15:05:24;;;;;;;;;;;;;;;;;;5010716;28;19924;-60
2023/07/28 15:07:50;;;;;;;;;;;;;;;;;;4996365;28;19913;-60
2023/07/28 15:10:16;;;;;;;;;;;;;;;;;;5002818;28;20373;-61
2023/07/28 15:12:43;;;;;;;;;;;;;;;;;;5008605;28;19944;-61
2023/07/28 15:15:09;;;;;;;;;;;;;;;;;;5006522;28;19914;-61
2023/07/28 15:17:35;;;;;;;;;;;;;;;;;;5007828;28;19920;-61
2023/07/28 15:20:01;;;;;;;;;;;;;;;;;;5006358;28;19925;-61
2023/07/28 15:22:27;;;;;;;;;;;;;;;;;;5009701;28;19960;-60
2023/07/28 15:24:53;;;;;;;;;;;;;;;;;;5004558;28;19913;-61
2023/07/28 15:27:19;;;;;;;;;;;;;;;;;;5006574;28;20371;-60
2023/07/28 15:29:46;;;;;;;;;;;;;;;;;;5006858;28;21551;-60
2023/07/28 15:32:12;;;;;;;;;;;;;;;;;;5009171;28;19957;-61
2023/07/28 15:34:38;;;;;;;;;;;;;;;;;;5004604;28;19921;-61
2023/07/28 15:37:04;;;;;;;;;;;;;;;;;;5008858;28;19938;-61
2023/07/28 15:39:30;;;;;;;;;;;;;;;;;;5007064;28;19968;-61
2023/07/28 15:41:56;;;;;;;;;;;;;;;;;;5005329;28;19956;-61
2023/07/28 15:44:24;;;;;;;;;;;;;;;;;;5009410;28;19949;-61
2023/07/28 15:46:51;;;;;;;;;;;;;;;;;;5009715;28;20029;-61
2023/07/28 15:49:18;;;;;;;;;;;;;;;;;;5014244;28;20038;-61
2023/07/28 15:51:44;;;;;;;;;;;;;;;;;;5006755;28;19961;-61
2023/07/28 15:54:10;;;;;;;;;;;;;;;;;;5010635;28;19964;-61
2023/07/28 15:56:36;;;;;;;;;;;;;;;;;;5011580;28;20680;-61
2023/07/28 15:59:02;;;;;;;;;;;;;;;;;;5007659;28;19944;-62
2023/07/28 16:01:28;;;;;;;;;;;;;;;;;;5010580;28;19921;-61
2023/07/28 16:03:54;;;;;;;;;;;;;;;;;;5013829;28;20322;-60
2023/07/28 16:06:20;;;;;;;;;;;;;;;;;;5009326;28;19945;-62
2023/07/28 16:08:46;;;;;;;;;;;;;;;;;;5011183;28;19936;-62
2023/07/28 16:11:12;;;;;;;;;;;;;;;;;;5011203;28;19944;-61
2023/07/28 16:13:38;;;;;;;;;;;;;;;;;;5007486;28;19949;-61
2023/07/28 16:16:04;;;;;;;;;;;;;;;;;;4999150;28;19971;-62
2023/07/28 16:18:30;;;;;;;;;;;;;;;;;;5012984;28;19918;-60
2023/07/28 16:20:56;;;;;;;;;;;;;;;;;;5010198;28;19957;-62
2023/07/28 16:23:22;;;;;;;;;;;;;;;;;;5005593;28;19952;-62
2023/07/28 16:25:47;;;;;;;;;;;;;;;;;;5012174;28;19919;-62
2023/07/28 16:28:13;;;;;;;;;;;;;;;;;;5008772;28;21897;-62
2023/07/28 16:30:42;;;;;;;;;;;;;;;;;;5012320;28;20334;-62
2023/07/28 16:33:08;;;;;;;;;;;;;;;;;;5011243;28;20666;-62
2023/07/28 16:35:34;;;;;;;;;;;;;;;;;;5006627;28;20071;-62
2023/07/28 16:38:00;;;;;;;;;;;;;;;;;;5004509;28;19913;-62
2023/07/28 16:40:26;;;;;;;;;;;;;;;;;;5008327;28;20427;-62